Time;durP1;ratioP1;P1;durP2;ratioP2;P2;SDS_P1;SDS_P2;PMS_P1;PMS_P2;Temp;Humidity;BMP_temperature;BMP_pressure;BME280_temperature;BME280_humidity;BME280_pressure;Samples;Min_cycle;Max_cycle;Signal;HPM_P1;HPM_P2
2021/12/11 00:01:38;;;;;;;;;10.00;4.00;;;;;4.65;70.34;100781.88;4964743;28;45396;-72
2021/12/11 00:04:07;;;;;;;;;5.50;5.00;;;;;4.65;70.51;100783.56;4969108;28;45396;-72
2021/12/11 00:06:38;;;;;;;;;6.00;5.25;;;;;4.59;70.87;100791.13;4960990;28;45349;-72
2021/12/11 00:09:35;;;;;;;;;7.50;7.00;;;;;4.64;70.75;100801.00;4959674;28;45260;-72
2021/12/11 00:12:07;;;;;;;;;6.00;5.75;;;;;4.56;70.35;100804.06;4957091;28;45726;-72
2021/12/11 00:14:37;;;;;;;;;10.50;6.00;;;;;4.62;70.07;100820.06;4954709;28;45349;-72
2021/12/11 00:17:03;;;;;;;;;6.75;5.75;;;;;4.62;71.35;100827.94;4966695;28;45585;-72
2021/12/11 00:19:33;;;;;;;;;9.50;5.00;;;;;4.56;70.84;100823.28;4965673;28;45452;-72
2021/12/11 00:22:10;;;;;;;;;10.50;5.00;;;;;4.53;69.94;100817.91;4960772;28;47107;-72
2021/12/11 00:24:36;;;;;;;;;6.00;5.00;;;;;4.47;70.70;100833.31;4959158;28;45233;-72
2021/12/11 00:27:26;;;;;;;;;7.50;5.25;;;;;4.55;70.24;100833.72;4960783;28;45380;-72
2021/12/11 00:29:52;;;;;;;;;10.25;7.00;;;;;4.54;70.61;100840.66;4959074;28;45894;-72
2021/12/11 00:32:26;;;;;;;;;5.00;5.00;;;;;4.49;70.79;100832.56;4963277;28;45423;-72
2021/12/11 00:34:56;;;;;;;;;6.75;5.25;;;;;4.53;70.39;100854.56;4959345;28;45304;-72
2021/12/11 00:37:24;;;;;;;;;7.00;5.25;;;;;4.42;70.93;100840.94;4966406;28;45810;-71
2021/12/11 00:39:56;;;;;;;;;8.75;4.00;;;;;4.54;70.73;100865.91;4965730;28;45306;-72
2021/12/11 00:42:31;;;;;;;;;7.00;5.25;;;;;4.53;70.51;100856.28;4958997;28;45369;-72
2021/12/11 00:44:59;;;;;;;;;5.50;3.50;;;;;4.49;69.73;100870.94;4959018;28;45336;-72
2021/12/11 00:47:32;;;;;;;;;6.00;5.00;;;;;4.51;70.66;100874.56;4974515;28;45386;-73
2021/12/11 00:50:03;;;;;;;;;6.00;3.00;;;;;4.48;71.08;100880.53;4967094;28;45290;-72
2021/12/11 00:52:37;;;;;;;;;6.50;5.00;;;;;4.45;70.91;100880.38;4958645;28;45349;-72
2021/12/11 00:55:26;;;;;;;;;6.75;5.75;;;;;4.39;70.72;100866.94;4964385;28;46434;-72
2021/12/11 00:58:20;;;;;;;;;2.00;2.00;;;;;4.48;70.44;100897.91;4959065;28;45463;-72
2021/12/11 01:01:07;;;;;;;;;6.00;5.00;;;;;4.46;70.55;100890.00;4968350;28;45256;-72
2021/12/11 01:03:47;;;;;;;;;6.00;3.50;;;;;4.44;71.12;100899.50;4975314;28;47331;-72
2021/12/11 01:06:18;;;;;;;;;2.50;2.50;;;;;4.32;70.83;100883.19;4966546;28;45521;-72
2021/12/11 01:08:52;;;;;;;;;9.25;5.75;;;;;4.43;70.85;100918.66;4976132;28;45472;-72
2021/12/11 01:11:22;;;;;;;;;7.00;6.00;;;;;4.30;71.35;100884.81;4965918;28;45430;-72
2021/12/11 01:14:05;;;;;;;;;5.50;5.50;;;;;4.41;70.91;100914.16;4958611;28;46606;-72
2021/12/11 01:16:31;;;;;;;;;2.50;2.50;;;;;4.38;71.44;100916.63;4966241;28;46656;-72
2021/12/11 01:19:01;;;;;;;;;3.00;3.00;;;;;4.43;71.00;100928.22;4958820;28;44813;-72
2021/12/11 01:26:34;;;;;;;;;6.75;5.00;;;;;4.31;71.23;100932.81;4958729;28;45269;-72
2021/12/11 01:29:00;;;;;;;;;7.00;6.00;;;;;4.38;70.85;100943.69;4962719;28;45289;-72
2021/12/11 01:31:27;;;;;;;;;9.75;6.75;;;;;4.34;70.24;100939.13;4966767;28;46258;-72
2021/12/11 01:33:54;;;;;;;;;5.00;3.00;;;;;4.37;70.96;100935.72;4961538;28;46219;-72
2021/12/11 01:36:20;;;;;;;;;5.25;5.25;;;;;4.28;71.56;100932.66;4958660;28;45269;-72
2021/12/11 01:38:46;;;;;;;;;5.50;5.00;;;;;4.41;70.99;100961.25;4958402;28;45327;-72
2021/12/11 01:41:16;;;;;;;;;2.00;2.00;;;;;4.37;71.29;100957.59;4968355;28;46934;-72
2021/12/11 01:43:43;;;;;;;;;9.25;5.75;;;;;4.35;71.39;100967.06;4958232;28;45540;-72
2021/12/11 01:46:10;;;;;;;;;4.00;2.00;;;;;4.37;71.39;100969.75;4967842;28;45449;-72
2021/12/11 01:49:00;;;;;;;;;4.50;3.00;;;;;4.40;71.34;100983.91;4957057;28;45371;-72
2021/12/11 01:51:34;;;;;;;;;4.75;3.00;;;;;4.38;71.34;100979.44;4969239;28;46414;-72
2021/12/11 01:54:22;;;;;;;;;6.00;4.50;;;;;4.39;71.14;100987.34;4960235;28;46580;-72
2021/12/11 01:56:58;;;;;;;;;8.00;5.00;;;;;4.33;71.37;100968.72;4965683;28;45772;-72
2021/12/11 01:59:36;;;;;;;;;5.00;2.75;;;;;4.38;71.36;100987.28;4960289;28;45312;-72
2021/12/11 02:02:08;;;;;;;;;3.00;2.00;;;;;4.36;71.56;100996.75;4972243;28;47422;-72
2021/12/11 02:04:38;;;;;;;;;5.00;5.00;;;;;4.22;71.54;100976.00;4966963;28;45523;-72
2021/12/11 02:07:10;;;;;;;;;3.00;3.00;;;;;4.33;71.34;100996.59;4958182;28;45385;-72
2021/12/11 02:09:38;;;;;;;;;2.50;2.50;;;;;4.25;71.74;100994.47;4961774;28;45281;-72
2021/12/11 02:12:18;;;;;;;;;5.00;3.00;;;;;4.32;72.16;101011.41;4958796;28;45218;-72
2021/12/11 02:14:49;;;;;;;;;4.50;4.50;;;;;4.21;72.00;100991.63;4960236;28;45354;-72
2021/12/11 02:17:20;;;;;;;;;5.25;3.00;;;;;4.28;71.45;101017.28;4957956;28;45236;-72
2021/12/11 02:19:47;;;;;;;;;5.50;5.00;;;;;4.28;71.71;101024.22;4958034;28;45333;-72
2021/12/11 02:22:17;;;;;;;;;4.00;4.00;;;;;4.27;72.08;101028.56;4958989;28;45440;-72
2021/12/11 02:24:47;;;;;;;;;5.75;3.50;;;;;4.20;72.13;101024.75;4958089;28;45507;-72
2021/12/11 02:27:35;;;;;;;;;2.50;2.50;;;;;4.15;71.91;101025.31;4958412;28;45287;-72
2021/12/11 02:30:19;;;;;;;;;3.25;3.25;;;;;4.21;71.84;101054.41;4968790;28;45510;-72
2021/12/11 02:32:53;;;;;;;;;6.00;5.00;;;;;4.20;72.03;101048.28;4959777;28;46071;-72
2021/12/11 02:35:37;;;;;;;;;4.00;4.00;;;;;4.01;71.92;101015.00;4958109;28;45474;-72
2021/12/11 02:38:11;;;;;;;;;9.25;6.00;;;;;4.16;71.72;101046.31;4969864;28;45443;-72
2021/12/11 02:40:46;;;;;;;;;6.75;5.00;;;;;4.14;71.99;101052.28;4962733;28;45340;-72
2021/12/11 02:43:20;;;;;;;;;8.00;2.00;;;;;4.05;71.63;101039.59;4958453;28;45292;-72
2021/12/11 02:45:55;;;;;;;;;2.00;2.00;;;;;4.12;71.14;101054.81;4969716;28;46643;-72
2021/12/11 02:48:34;;;;;;;;;8.25;4.00;;;;;4.10;72.07;101059.06;4962786;28;45475;-73
2021/12/11 02:51:09;;;;;;;;;6.00;4.00;;;;;4.10;72.43;101060.78;4960453;28;45296;-72
2021/12/11 02:53:51;;;;;;;;;6.50;4.50;;;;;4.03;72.35;101049.06;4957439;28;45503;-72
2021/12/11 02:56:27;;;;;;;;;6.00;5.00;;;;;4.07;72.43;101065.84;4957723;28;45818;-72
2021/12/11 02:58:57;;;;;;;;;7.50;3.00;;;;;3.87;71.79;101042.13;4957224;28;45360;-72
2021/12/11 03:01:28;;;;;;;;;8.00;4.50;;;;;4.02;72.49;101073.44;4960262;28;45558;-72
2021/12/11 03:04:09;;;;;;;;;6.25;5.00;;;;;3.90;72.37;101065.81;4957615;28;45313;-72
2021/12/11 03:06:41;;;;;;;;;2.75;2.75;;;;;3.97;72.30;101082.75;4961854;28;45405;-74
2021/12/11 03:09:08;;;;;;;;;6.00;5.25;;;;;3.89;72.52;101079.69;4962985;28;45481;-72
2021/12/11 03:11:34;;;;;;;;;7.00;3.00;;;;;3.97;72.59;101087.97;4958245;28;45379;-72
2021/12/11 03:14:03;;;;;;;;;3.00;2.00;;;;;3.91;72.94;101093.75;4957147;28;45292;-72
2021/12/11 03:16:33;;;;;;;;;2.50;2.50;;;;;3.97;73.06;101108.88;4962456;28;47567;-72
2021/12/11 03:19:01;;;;;;;;;4.75;4.00;;;;;3.77;72.66;101081.63;4957364;28;45412;-72
2021/12/11 03:21:26;;;;;;;;;3.50;3.00;;;;;3.93;72.83;101112.16;4957900;28;45474;-73
2021/12/11 03:23:54;;;;;;;;;5.50;2.00;;;;;3.83;72.41;101096.75;4957239;28;45343;-72
2021/12/11 03:26:20;;;;;;;;;2.25;2.00;;;;;3.89;72.36;101118.91;4957739;28;46783;-72
2021/12/11 03:28:46;;;;;;;;;7.00;1.50;;;;;3.98;72.43;101129.91;4957042;28;45435;-72
2021/12/11 03:31:12;;;;;;;;;2.50;1.75;;;;;3.91;72.69;101129.47;4957358;28;44824;-72
2021/12/11 03:33:44;;;;;;;;;7.25;3.00;;;;;3.92;72.32;101129.56;4957115;28;45461;-72
2021/12/11 03:36:13;;;;;;;;;2.00;2.00;;;;;3.95;72.93;101142.81;4956980;28;45497;-72
2021/12/11 03:38:43;;;;;;;;;2.25;2.25;;;;;3.96;73.14;101146.34;4956853;28;45494;-72
2021/12/11 03:41:09;;;;;;;;;5.00;2.75;;;;;3.92;73.15;101152.19;4963623;28;45233;-72
2021/12/11 03:43:35;;;;;;;;;4.50;3.00;;;;;3.88;72.59;101140.66;4956344;28;45937;-72
2021/12/11 03:46:06;;;;;;;;;6.25;4.00;;;;;3.92;72.94;101157.41;4966978;28;45426;-72
2021/12/11 03:48:36;;;;;;;;;6.75;3.00;;;;;3.77;72.41;101147.88;4956796;28;45326;-72
2021/12/11 03:51:05;;;;;;;;;2.75;2.00;;;;;3.79;72.77;101153.22;4961475;28;45463;-72
2021/12/11 03:53:31;;;;;;;;;5.50;2.25;;;;;3.78;73.38;101154.00;4959727;28;45380;-72
2021/12/11 03:56:01;;;;;;;;;5.00;2.00;;;;;3.88;72.74;101169.44;4959780;28;46468;-72
2021/12/11 03:58:28;;;;;;;;;4.75;2.25;;;;;3.77;72.93;101154.84;4969163;28;45438;-72
2021/12/11 04:01:02;;;;;;;;;5.75;4.00;;;;;3.80;72.81;101166.38;4972673;28;45521;-72
2021/12/11 04:03:32;;;;;;;;;3.75;3.00;;;;;3.76;73.20;101167.00;4967079;28;46161;-72
2021/12/11 04:06:01;;;;;;;;;6.75;5.00;;;;;3.82;73.69;101171.69;4960176;28;45584;-72
2021/12/11 04:08:34;;;;;;;;;2.50;2.00;;;;;3.71;72.97;101152.78;4976113;28;45526;-72
2021/12/11 04:11:00;;;;;;;;;2.00;2.00;;;;;3.70;73.82;101161.44;4960299;28;45521;-72
2021/12/11 04:13:25;;;;;;;;;5.00;3.00;;;;;3.69;73.46;101163.94;4974199;28;46427;-72
2021/12/11 04:15:53;;;;;;;;;3.00;3.00;;;;;3.74;73.58;101172.97;4960090;28;45494;-72
2021/12/11 04:18:19;;;;;;;;;5.25;2.00;;;;;3.72;73.23;101178.09;4959378;28;44765;-72
2021/12/11 04:20:46;;;;;;;;;3.50;3.50;;;;;3.60;73.22;101164.31;4971038;28;45430;-72
2021/12/11 04:23:13;;;;;;;;;5.25;3.00;;;;;3.66;73.76;101184.69;4963269;28;47055;-72
2021/12/11 04:25:43;;;;;;;;;8.00;2.00;;;;;3.48;73.46;101155.78;4959440;28;45645;-72
2021/12/11 04:28:09;;;;;;;;;1.75;1.75;;;;;3.59;73.76;101179.13;4959228;28;45448;-72
2021/12/11 04:30:36;;;;;;;;;3.00;3.00;;;;;3.62;73.85;101183.63;4971370;28;45470;-72
2021/12/11 04:33:02;;;;;;;;;4.00;3.25;;;;;3.54;73.44;101185.78;4959215;28;45499;-72
2021/12/11 04:35:29;;;;;;;;;8.00;2.75;;;;;3.61;73.70;101201.81;4965622;28;47526;-72
2021/12/11 04:37:58;;;;;;;;;1.50;0.50;;;;;3.46;72.61;101173.06;4958908;28;45244;-70
2021/12/11 04:40:29;;;;;;;;;5.75;2.00;;;;;3.56;73.82;101194.63;4964759;28;45297;-71
2021/12/11 04:43:06;;;;;;;;;6.00;5.75;;;;;3.47;73.70;101186.22;4975036;28;47217;-71
2021/12/11 04:45:36;;;;;;;;;11.75;5.00;;;;;3.58;73.24;101206.06;4970559;28;46273;-71
2021/12/11 04:48:18;;;;;;;;;3.25;2.00;;;;;3.55;73.71;101208.47;4969194;28;45324;-71
2021/12/11 04:50:57;;;;;;;;;2.00;2.00;;;;;3.53;73.59;101211.84;4958905;28;45384;-71
2021/12/11 04:53:46;;;;;;;;;4.00;2.50;;;;;3.39;73.28;101191.81;4958997;28;45598;-71
2021/12/11 05:07:17;;;;;;;;;2.00;1.00;;;;;3.55;74.08;101221.53;4959604;28;45415;-71
2021/12/11 05:09:58;;;;;;;;;3.50;2.50;;;;;3.37;73.78;101199.56;4967318;28;44918;-71
2021/12/11 05:14:50;;;;;;;;;3.00;2.00;;;;;3.47;74.54;101225.41;4958475;28;45455;-71
2021/12/11 05:17:17;;;;;;;;;5.50;3.25;;;;;3.27;74.23;101186.75;4959517;28;46585;-71
2021/12/11 05:19:43;;;;;;;;;5.25;2.50;;;;;3.40;73.94;101211.91;4959017;28;45336;-71
2021/12/11 05:22:09;;;;;;;;;2.75;2.75;;;;;3.43;74.12;101236.50;4959496;28;45396;-71
2021/12/11 05:24:38;;;;;;;;;6.25;4.50;;;;;3.38;74.40;101234.44;4958653;28;45386;-71
2021/12/11 05:27:04;;;;;;;;;4.75;3.25;;;;;3.40;74.24;101235.44;4958063;28;46985;-71
2021/12/11 05:29:30;;;;;;;;;2.00;2.00;;;;;3.28;74.31;101233.00;4958514;28;45431;-71
2021/12/11 05:31:57;;;;;;;;;4.50;4.50;;;;;3.34;74.80;101249.94;4958751;28;45422;-71
2021/12/11 05:34:23;;;;;;;;;5.50;5.00;;;;;3.30;74.61;101253.16;4958608;28;45405;-71
2021/12/11 05:36:48;;;;;;;;;5.75;4.50;;;;;3.20;74.60;101240.34;4958310;28;46280;-71
2021/12/11 05:39:18;;;;;;;;;6.50;6.50;;;;;3.15;74.29;101241.78;4969224;28;45416;-71
2021/12/11 05:41:45;;;;;;;;;4.75;4.75;;;;;3.30;74.92;101267.94;4965882;28;45426;-71
2021/12/11 05:44:12;;;;;;;;;4.50;4.50;;;;;3.28;74.04;101267.84;4959105;28;45607;-71
2021/12/11 05:46:38;;;;;;;;;7.25;7.25;;;;;3.25;74.73;101283.34;4969770;28;45755;-71
2021/12/11 05:49:05;;;;;;;;;6.75;6.00;;;;;3.25;74.59;101293.78;4958357;28;45546;-71
2021/12/11 05:51:38;;;;;;;;;4.50;4.50;;;;;3.23;74.80;101297.13;4959942;28;46530;-71
2021/12/11 05:54:06;;;;;;;;;5.00;4.00;;;;;3.02;74.83;101265.31;4969262;28;45183;-71
2021/12/11 05:56:35;;;;;;;;;7.50;2.75;;;;;3.09;74.63;101291.94;4970752;28;47378;-71
2021/12/11 05:59:03;;;;;;;;;11.25;6.25;;;;;3.06;74.63;101290.84;4975737;28;45492;-72
2021/12/11 06:01:35;;;;;;;;;4.50;4.50;;;;;3.17;73.81;101323.75;4964247;28;45291;-71
2021/12/11 06:04:10;;;;;;;;;6.00;6.00;;;;;3.01;74.70;101305.31;4958363;28;45384;-72
2021/12/11 06:06:37;;;;;;;;;8.25;6.50;;;;;3.12;75.06;101333.91;4964033;28;47143;-71
2021/12/11 06:09:06;;;;;;;;;6.25;4.25;;;;;3.10;74.67;101340.72;4972320;28;45204;-72
2021/12/11 06:11:32;;;;;;;;;8.50;5.25;;;;;2.95;74.55;101318.88;4962964;28;45369;-71
2021/12/11 06:13:58;;;;;;;;;7.50;6.00;;;;;3.04;75.29;101339.47;4956787;28;45450;-71
2021/12/11 06:16:24;;;;;;;;;6.50;6.00;;;;;2.95;74.81;101323.22;4956918;28;47033;-71
2021/12/11 06:18:50;;;;;;;;;5.50;3.25;;;;;3.05;74.71;101341.25;4958200;28;45457;-71
2021/12/11 06:21:15;;;;;;;;;7.25;5.25;;;;;2.88;75.13;101309.75;4958270;28;45567;-71
2021/12/11 06:23:41;;;;;;;;;6.50;5.00;;;;;2.99;74.89;101341.75;4957920;28;45593;-71
2021/12/11 06:26:06;;;;;;;;;5.00;5.00;;;;;3.00;75.07;101351.44;4957916;28;45385;-72
2021/12/11 06:28:32;;;;;;;;;6.00;5.00;;;;;2.92;74.85;101339.59;4957656;28;45382;-72
2021/12/11 06:30:58;;;;;;;;;8.00;5.00;;;;;2.91;75.14;101346.53;4958024;28;45415;-71
2021/12/11 06:33:26;;;;;;;;;14.00;8.75;;;;;2.84;75.28;101331.25;4958116;28;45317;-71
2021/12/11 06:36:01;;;;;;;;;2.25;2.25;;;;;2.96;76.14;101352.03;4957927;28;48132;-71
2021/12/11 06:38:29;;;;;;;;;4.25;2.00;;;;;2.85;75.27;101335.66;4957717;28;46402;-72
2021/12/11 06:40:55;;;;;;;;;8.75;5.00;;;;;2.88;75.23;101351.53;4964642;28;45402;-71
2021/12/11 06:43:22;;;;;;;;;9.75;5.75;;;;;2.79;75.43;101345.72;4957561;28;45464;-71
2021/12/11 06:45:48;;;;;;;;;9.50;5.00;;;;;2.90;75.35;101377.75;4970272;28;46354;-71
2021/12/11 06:48:15;;;;;;;;;6.50;4.50;;;;;2.79;74.76;101369.22;4957793;28;45245;-71
2021/12/11 06:50:41;;;;;;;;;6.00;6.00;;;;;2.81;75.17;101379.78;4957701;28;45285;-71
2021/12/11 06:53:14;;;;;;;;;4.50;3.25;;;;;2.73;74.75;101374.03;4957610;28;45553;-71
2021/12/11 06:55:40;;;;;;;;;5.00;4.00;;;;;2.82;75.66;101394.63;4957706;28;45590;-71
2021/12/11 06:58:06;;;;;;;;;10.00;5.00;;;;;2.78;74.79;101393.53;4957443;28;45278;-71
2021/12/11 07:00:32;;;;;;;;;11.75;8.75;;;;;2.70;75.63;101381.69;4957933;28;45173;-71
2021/12/11 07:02:57;;;;;;;;;9.00;6.25;;;;;2.76;75.24;101402.06;4957420;28;45459;-70
2021/12/11 07:05:23;;;;;;;;;10.25;9.00;;;;;2.76;75.48;101417.72;4959513;28;48433;-71
2021/12/11 07:07:49;;;;;;;;;13.50;10.75;;;;;2.73;75.90;101402.75;4960540;28;45463;-70
2021/12/11 07:10:17;;;;;;;;;11.25;9.75;;;;;2.75;75.64;101421.16;4958439;28;45434;-71
2021/12/11 07:12:44;;;;;;;;;10.75;9.00;;;;;2.75;75.68;101423.75;4966311;28;45465;-71
2021/12/11 07:15:10;;;;;;;;;11.50;10.50;;;;;2.74;75.66;101433.28;4958984;28;45228;-70
2021/12/11 07:17:37;;;;;;;;;17.00;11.25;;;;;2.69;75.15;101437.31;4967409;28;45237;-71
2021/12/11 07:20:05;;;;;;;;;15.75;10.00;;;;;2.63;75.98;101432.59;4956896;28;45203;-70
2021/12/11 07:22:30;;;;;;;;;12.50;9.75;;;;;2.71;74.98;101453.06;4967719;28;45426;-70
2021/12/11 07:25:03;;;;;;;;;13.75;10.00;;;;;2.64;75.49;101441.31;4957518;28;46034;-70
2021/12/11 07:27:29;;;;;;;;;12.00;10.75;;;;;2.38;75.54;101409.19;4961606;28;45342;-71
2021/12/11 07:29:54;;;;;;;;;18.00;11.75;;;;;2.65;75.17;101467.50;4958150;28;45562;-70
2021/12/11 07:32:20;;;;;;;;;13.50;10.25;;;;;2.59;75.66;101450.53;4959689;28;45400;-70
2021/12/11 07:34:45;;;;;;;;;12.25;10.75;;;;;2.63;75.80;101465.59;4956447;28;46884;-70
2021/12/11 07:37:11;;;;;;;;;12.75;10.50;;;;;2.61;76.33;101464.59;4958880;28;45298;-70
2021/12/11 07:39:37;;;;;;;;;7.00;7.00;;;;;2.54;75.19;101459.75;4964970;28;45342;-71
2021/12/11 07:42:03;;;;;;;;;8.50;8.50;;;;;2.57;75.83;101471.28;4965194;28;46118;-71
2021/12/11 07:44:28;;;;;;;;;8.25;8.25;;;;;2.53;75.97;101471.91;4976778;28;45498;-71
2021/12/11 07:46:55;;;;;;;;;12.00;8.00;;;;;2.59;76.35;101490.59;4988862;28;45412;-71
2021/12/11 07:49:21;;;;;;;;;17.00;8.75;;;;;2.62;76.17;101482.06;4960214;28;45489;-70
2021/12/11 07:51:49;;;;;;;;;8.00;8.00;;;;;2.70;76.17;101488.69;4969576;28;47176;-70
2021/12/11 07:54:15;;;;;;;;;9.75;9.75;;;;;2.67;76.10;101484.19;4957764;28;46042;-70
2021/12/11 07:56:41;;;;;;;;;10.75;10.00;;;;;2.65;75.76;101477.94;4958267;28;45525;-70
2021/12/11 07:59:08;;;;;;;;;20.50;12.75;;;;;2.79;75.48;101501.47;4962994;28;45454;-70
2021/12/11 08:01:36;;;;;;;;;14.75;13.00;;;;;2.75;76.07;101497.75;4964434;28;45695;-70
2021/12/11 08:04:04;;;;;;;;;10.00;10.00;;;;;2.82;76.15;101519.94;4958786;28;45674;-71
2021/12/11 08:06:31;;;;;;;;;13.00;9.00;;;;;2.62;75.50;101490.78;4964333;28;45356;-71
2021/12/11 08:08:57;;;;;;;;;14.50;9.00;;;;;2.75;75.25;101520.34;4982675;27;45386;-71
2021/12/11 08:11:28;;;;;;;;;13.25;9.25;;;;;2.78;76.01;101534.50;4963422;28;45413;-71
2021/12/11 08:13:56;;;;;;;;;12.75;11.75;;;;;2.74;76.24;101528.94;4960026;28;45426;-71
2021/12/11 08:16:26;;;;;;;;;16.00;9.75;;;;;2.78;75.97;101544.94;4962913;28;45463;-71
2021/12/11 08:18:53;;;;;;;;;13.75;9.75;;;;;2.66;75.67;101528.44;4960929;28;45237;-71
2021/12/11 08:21:19;;;;;;;;;16.25;11.00;;;;;2.73;76.05;101529.75;4961512;28;46459;-71
2021/12/11 08:23:48;;;;;;;;;13.50;13.50;;;;;2.82;76.13;101546.03;4960185;28;47618;-71
2021/12/11 08:26:21;;;;;;;;;13.75;12.75;;;;;2.75;75.63;101533.41;4962122;28;45385;-70
2021/12/11 08:28:49;;;;;;;;;9.75;9.75;;;;;2.71;76.24;101529.66;4956459;28;45419;-70
2021/12/11 08:31:15;;;;;;;;;18.00;12.75;;;;;2.87;76.86;101556.00;4958691;28;45456;-71
2021/12/11 08:33:41;;;;;;;;;11.25;10.00;;;;;2.91;75.97;101549.25;4955123;28;47772;-71
2021/12/11 08:36:09;;;;;;;;;13.75;12.00;;;;;2.97;76.96;101552.31;4961309;28;45442;-71
2021/12/11 08:38:34;;;;;;;;;10.00;9.00;;;;;3.02;76.84;101542.16;4958669;28;45244;-71
2021/12/11 08:41:03;;;;;;;;;16.25;13.00;;;;;3.06;77.41;101518.06;4965973;28;45406;-71
2021/12/11 08:43:28;;;;;;;;;13.00;9.50;;;;;3.28;76.86;101544.78;4974236;28;47166;-71
2021/12/11 08:46:03;;;;;;;;;13.00;11.00;;;;;3.32;76.32;101543.28;4986361;28;45158;-69
2021/12/11 08:48:29;;;;;;;;;15.25;14.50;;;;;3.41;76.91;101545.56;4964963;28;45254;-72
2021/12/11 08:51:01;;;;;;;;;18.75;14.50;;;;;3.51;76.24;101554.13;4960696;28;46202;-71
2021/12/11 08:53:27;;;;;;;;;12.50;12.50;;;;;3.60;76.21;101548.56;4966266;28;45464;-70
2021/12/11 08:55:54;;;;;;;;;18.00;14.00;;;;;3.75;76.52;101565.25;4963923;28;45246;-71
2021/12/11 08:58:20;;;;;;;;;59.00;46.33;;;;;3.90;76.03;101574.88;4959254;28;45218;-71
2021/12/11 09:01:24;;;;;;;;;16.50;16.50;;;;;4.03;75.09;101582.66;4961843;28;44669;-71
2021/12/11 09:04:21;;;;;;;;;20.75;17.25;;;;;4.12;75.79;101578.03;4963429;28;45510;-71
2021/12/11 09:06:59;;;;;;;;;21.75;18.75;;;;;4.25;75.25;101582.31;4971924;27;45480;-71
2021/12/11 09:09:57;;;;;;;;;20.00;16.00;;;;;4.33;75.13;101578.47;4982860;28;45553;-71
2021/12/11 09:12:37;;;;;;;;;16.00;14.25;;;;;4.39;75.43;101585.78;4969499;28;45278;-71
2021/12/11 09:15:08;;;;;;;;;16.25;15.00;;;;;4.53;74.64;101598.00;4959623;28;45330;-71
2021/12/11 09:17:39;;;;;;;;;15.75;14.75;;;;;4.54;74.55;101588.44;4964648;28;46169;-71
2021/12/11 09:20:11;;;;;;;;;20.00;12.75;;;;;4.61;74.83;101602.00;4959363;28;45368;-71
2021/12/11 09:22:56;;;;;;;;;15.00;11.50;;;;;4.70;74.17;101606.88;4964498;28;45191;-71
2021/12/11 09:25:32;;;;;;;;;14.25;11.00;;;;;4.71;73.72;101617.47;4961364;28;45284;-71
2021/12/11 09:28:09;;;;;;;;;11.00;9.50;;;;;4.77;74.65;101614.31;4958506;28;45221;-71
2021/12/11 09:31:00;;;;;;;;;15.50;13.00;;;;;4.87;74.28;101627.19;4968764;28;45344;-71
2021/12/11 09:33:32;;;;;;;;;16.25;15.75;;;;;4.92;74.05;101625.72;4978562;28;45298;-71
2021/12/11 09:36:02;;;;;;;;;97.00;67.33;;;;;4.89;74.42;101615.06;4969635;28;47271;-70
2021/12/11 09:38:33;;;;;;;;;51.00;41.75;;;;;5.02;73.53;101635.03;4965067;28;45333;-71
2021/12/11 09:40:59;;;;;;;;;30.50;24.25;;;;;5.16;74.00;101646.34;4961072;28;45406;-70
2021/12/11 09:43:39;;;;;;;;;24.25;20.75;;;;;5.23;73.68;101645.00;4970509;28;45501;-71
2021/12/11 09:46:08;;;;;;;;;20.25;16.75;;;;;5.30;73.86;101644.56;4995244;28;45577;-71
2021/12/11 09:48:34;;;;;;;;;19.25;13.50;;;;;5.38;73.13;101638.94;4965093;28;45245;-70
2021/12/11 09:51:04;;;;;;;;;54.25;42.75;;;;;5.41;73.45;101629.47;4958987;28;45408;-71
2021/12/11 09:53:38;;;;;;;;;20.75;20.00;;;;;5.51;73.51;101647.50;4960957;28;45384;-73
2021/12/11 09:56:08;;;;;;;;;30.50;28.25;;;;;5.55;73.09;101644.28;4960766;28;47654;-72
2021/12/11 09:58:37;;;;;;;;;59.75;49.50;;;;;5.39;73.23;101616.25;4971331;28;45313;-72
2021/12/11 10:01:19;;;;;;;;;23.00;22.75;;;;;5.72;73.56;101661.88;4973657;28;45292;-74
2021/12/11 10:04:02;;;;;;;;;90.00;64.67;;;;;5.77;72.33;101656.88;4958432;28;45462;-72
2021/12/11 10:06:40;;;;;;;;;59.50;47.50;;;;;5.88;73.14;101665.38;4965400;28;45456;-72
2021/12/11 10:09:18;;;;;;;;;37.00;32.50;;;;;5.95;72.65;101672.81;4981947;28;45239;-72
2021/12/11 10:11:52;;;;;;;;;63.50;47.75;;;;;6.00;72.60;101666.13;4967558;28;45373;-72
2021/12/11 10:14:22;;;;;;;;;50.25;40.75;;;;;6.02;71.41;101665.41;4958523;28;45409;-73
2021/12/11 10:16:52;;;;;;;;;26.50;22.75;;;;;6.13;72.25;101670.31;4968130;28;46704;-72
2021/12/11 10:19:20;;;;;;;;;11.75;9.75;;;;;6.19;72.29;101668.97;4958994;28;45325;-72
2021/12/11 10:21:52;;;;;;;;;20.25;17.50;;;;;6.16;72.30;101654.75;4960231;28;44778;-72
2021/12/11 10:24:24;;;;;;;;;22.25;17.50;;;;;6.23;71.62;101659.53;4958090;28;46026;-72
2021/12/11 10:26:52;;;;;;;;;20.00;15.50;;;;;6.37;71.09;101676.06;4963144;28;47390;-72
2021/12/11 10:29:18;;;;;;;;;20.50;20.00;;;;;6.48;71.85;101680.16;4957886;28;45339;-71
2021/12/11 10:31:48;;;;;;;;;14.25;11.25;;;;;6.52;71.56;101676.88;4960527;28;45554;-72
2021/12/11 10:34:18;;;;;;;;;20.75;15.25;;;;;6.50;71.05;101668.03;4957734;28;45390;-70
2021/12/11 10:36:53;;;;;;;;;7.25;5.25;;;;;6.57;71.19;101671.88;4983703;28;48393;-71
2021/12/11 10:39:18;;;;;;;;;6.50;4.50;;;;;6.64;70.78;101677.56;4958263;27;45436;-71
2021/12/11 10:41:46;;;;;;;;;5.50;5.00;;;;;6.58;71.04;101668.44;4960274;28;45318;-71
2021/12/11 10:44:40;;;;;;;;;7.00;3.50;;;;;6.75;69.95;101685.09;4956947;28;45285;-70
2021/12/11 10:47:22;;;;;;;;;9.25;4.50;;;;;6.76;69.81;101684.31;4975514;28;47328;-68
2021/12/11 10:49:49;;;;;;;;;5.75;4.25;;;;;6.78;70.00;101674.75;4957500;28;45226;-68
2021/12/11 10:52:23;;;;;;;;;7.00;7.00;;;;;6.83;70.75;101679.44;4957738;28;45514;-69
2021/12/11 10:54:50;;;;;;;;;6.25;3.00;;;;;6.81;71.10;101673.22;4957649;28;45420;-69
2021/12/11 10:57:17;;;;;;;;;16.25;14.00;;;;;6.86;69.78;101690.13;4964393;28;47613;-69
2021/12/11 10:59:45;;;;;;;;;12.00;12.00;;;;;6.85;69.57;101683.06;4976714;28;45293;-70
2021/12/11 11:02:16;;;;;;;;;30.00;21.50;;;;;6.90;69.80;101691.19;4961948;28;45316;-69
2021/12/11 11:04:46;;;;;;;;;30.50;25.00;;;;;6.84;69.64;101680.38;4957036;28;45395;-69
2021/12/11 11:07:13;;;;;;;;;58.75;48.00;;;;;6.83;69.74;101675.91;4962354;28;46690;-70
2021/12/11 11:09:41;;;;;;;;;12.00;8.75;;;;;6.97;69.74;101701.19;4980733;28;45470;-70
2021/12/11 11:12:10;;;;;;;;;12.50;12.25;;;;;7.04;69.73;101705.97;4968102;28;45450;-69
2021/12/11 11:14:36;;;;;;;;;5.00;4.50;;;;;7.06;68.98;101698.19;4957629;28;45228;-69
2021/12/11 11:17:08;;;;;;;;;8.00;6.50;;;;;7.00;69.50;101684.69;4963605;28;46848;-69
2021/12/11 11:19:36;;;;;;;;;7.00;4.00;;;;;7.05;68.34;101686.75;4959792;28;44849;-70
2021/12/11 11:22:06;;;;;;;;;4.00;4.00;;;;;7.06;69.01;101682.41;4961333;28;45187;-69
2021/12/11 11:24:35;;;;;;;;;6.00;4.00;;;;;7.17;68.63;101689.13;4956790;28;45451;-69
2021/12/11 11:27:03;;;;;;;;;4.50;4.50;;;;;7.20;68.78;101684.03;4960698;28;45345;-69
2021/12/11 11:29:29;;;;;;;;;4.00;4.00;;;;;7.30;69.51;101678.41;4971630;28;45768;-69
2021/12/11 11:32:00;;;;;;;;;5.75;3.00;;;;;7.39;68.20;101677.97;4961319;28;45514;-69
2021/12/11 11:34:26;;;;;;;;;6.00;4.00;;;;;7.42;68.70;101675.50;4958863;28;45235;-69
2021/12/11 11:36:54;;;;;;;;;7.25;4.00;;;;;7.45;69.50;101675.69;4958574;28;45252;-70
2021/12/11 11:39:22;;;;;;;;;6.25;4.00;;;;;7.46;68.06;101674.84;4956898;28;45655;-69
2021/12/11 11:41:55;;;;;;;;;10.25;7.00;;;;;7.49;68.38;101669.75;4959600;28;45321;-69
2021/12/11 11:44:24;;;;;;;;;8.25;6.00;;;;;7.55;66.92;101687.56;4956967;28;45399;-69
2021/12/11 11:46:52;;;;;;;;;4.00;4.00;;;;;7.59;67.32;101700.97;4993486;28;46114;-69
2021/12/11 11:49:18;;;;;;;;;4.00;4.00;;;;;7.55;68.09;101685.81;4957983;28;45250;-69
2021/12/11 11:51:52;;;;;;;;;7.75;4.25;;;;;7.58;67.98;101698.22;4957932;28;45619;-70
2021/12/11 11:54:21;;;;;;;;;3.25;3.25;;;;;7.66;69.00;101706.53;4961270;27;45923;-69
2021/12/11 11:56:52;;;;;;;;;6.00;4.50;;;;;7.60;67.49;101693.97;4961079;28;48059;-70
2021/12/11 11:59:18;;;;;;;;;7.25;5.50;;;;;7.66;68.51;101693.38;4957027;28;44747;-69
2021/12/11 12:02:00;;;;;;;;;4.50;4.00;;;;;7.65;68.43;101696.84;4965375;28;45286;-70
2021/12/11 12:04:29;;;;;;;;;7.25;6.75;;;;;7.72;67.81;101702.47;4975193;28;45526;-69